createdAt,value
2023-02-09T00:00:26.662Z,13.88
2023-02-09T00:02:53.600Z,13.68
2023-02-09T00:05:20.597Z,13.57
2023-02-09T00:07:47.441Z,13.55
2023-02-09T00:10:14.255Z,13.45
2023-02-09T00:12:59.564Z,14.30
2023-02-09T00:15:26.352Z,13.75
2023-02-09T00:17:53.130Z,13.20
2023-02-09T00:20:20.146Z,14.30
2023-02-09T00:22:46.977Z,14.63
2023-02-09T00:25:13.842Z,13.75
2023-02-09T00:27:40.663Z,13.85
2023-02-09T00:30:08.039Z,14.07
2023-02-09T00:32:34.878Z,13.48
2023-02-09T00:35:01.764Z,13.60
2023-02-09T00:37:28.575Z,14.13
2023-02-09T00:39:55.477Z,13.70
2023-02-09T00:42:22.339Z,13.93
2023-02-09T00:44:49.152Z,14.30
2023-02-09T00:47:16.071Z,13.85
2023-02-09T00:49:42.891Z,13.73
2023-02-09T00:52:10.212Z,14.15
2023-02-09T00:54:37.257Z,13.48
2023-02-09T00:57:05.562Z,13.45
2023-02-09T00:59:34.516Z,13.32
2023-02-09T01:02:02.123Z,14.30
2023-02-09T01:04:29.264Z,13.30
2023-02-09T01:06:56.232Z,13.82
2023-02-09T01:09:23.238Z,13.13
2023-02-09T01:11:50.486Z,12.70
2023-02-09T01:14:17.425Z,12.82
2023-02-09T01:16:44.314Z,13.35
2023-02-09T01:19:13.230Z,13.95
2023-02-09T01:21:40.556Z,13.95
2023-02-09T01:24:07.633Z,13.38
2023-02-09T01:26:34.677Z,13.15
2023-02-09T01:29:01.534Z,12.27
2023-02-09T01:31:31.738Z,12.23
2023-02-09T01:34:00.788Z,12.70
2023-02-09T01:36:28.730Z,11.85
2023-02-09T01:38:57.116Z,11.73
2023-02-09T01:41:24.314Z,10.68
2023-02-09T01:43:59.419Z,11.68
2023-02-09T01:46:29.428Z,9.87
2023-02-09T01:49:18.280Z,10.48
2023-02-09T01:51:48.993Z,9.75
2023-02-09T01:54:20.901Z,9.32
2023-02-09T01:56:51.984Z,8.93
2023-02-09T01:59:20.110Z,9.75
2023-02-09T02:01:47.031Z,8.88
2023-02-09T02:04:14.466Z,8.77
2023-02-09T02:06:41.450Z,9.13
2023-02-09T02:09:13.959Z,9.35
2023-02-09T02:11:44.194Z,8.95
2023-02-09T02:14:30.318Z,8.65
2023-02-09T02:17:29.589Z,7.80
2023-02-09T02:20:11.125Z,8.18
2023-02-09T02:23:11.665Z,7.93
2023-02-09T02:25:56.475Z,7.82
2023-02-09T02:28:48.147Z,8.02
2023-02-09T02:31:26.692Z,7.95
2023-02-09T02:33:58.628Z,7.78
2023-02-09T02:36:35.599Z,7.40
2023-02-09T02:39:29.960Z,8.07
2023-02-09T02:42:37.433Z,7.57
2023-02-09T02:45:32.914Z,8.00
2023-02-09T02:50:54.210Z,7.88
2023-02-09T02:55:52.425Z,7.40
2023-02-09T02:58:22.566Z,7.65
2023-02-09T03:00:52.994Z,7.82
2023-02-09T03:03:23.050Z,8.50
2023-02-09T03:05:51.788Z,7.95
2023-02-09T03:08:18.582Z,8.75
2023-02-09T03:10:46.239Z,7.72
2023-02-09T03:13:34.257Z,7.38
2023-02-09T03:16:27.456Z,8.30
2023-02-09T03:19:14.520Z,7.53
2023-02-09T03:21:44.493Z,7.65
2023-02-09T03:24:26.839Z,7.38
2023-02-09T03:27:23.017Z,7.45
2023-02-09T03:29:54.656Z,7.85
2023-02-09T03:32:23.334Z,7.45
2023-02-09T03:34:50.447Z,7.47
2023-02-09T03:37:18.139Z,8.40
2023-02-09T03:39:45.064Z,7.80
2023-02-09T03:42:11.883Z,7.82
2023-02-09T03:44:38.962Z,8.38
2023-02-09T03:47:08.377Z,7.47
2023-02-09T03:49:39.931Z,7.53
2023-02-09T03:52:09.837Z,7.97
2023-02-09T03:54:37.035Z,8.15
2023-02-09T03:57:04.344Z,7.63
2023-02-09T03:59:35.458Z,7.80
2023-02-09T04:02:02.876Z,8.45
2023-02-09T04:04:29.721Z,8.77
2023-02-09T04:06:56.806Z,7.82
2023-02-09T04:09:24.370Z,7.72
2023-02-09T04:11:51.547Z,9.05
2023-02-09T04:14:18.703Z,7.95
2023-02-09T04:16:46.107Z,8.15
2023-02-09T04:19:13.377Z,8.45
2023-02-09T04:21:40.850Z,7.93
2023-02-09T04:24:08.495Z,8.10
2023-02-09T04:26:35.473Z,8.20
2023-02-09T04:29:02.325Z,7.75
2023-02-09T04:31:31.305Z,8.60
2023-02-09T04:33:58.177Z,7.32
2023-02-09T04:36:25.140Z,8.85
2023-02-09T04:38:52.028Z,7.85
2023-02-09T04:41:18.860Z,7.90
2023-02-09T04:43:48.771Z,9.05
2023-02-09T04:46:17.315Z,8.40
2023-02-09T04:48:44.680Z,9.05
2023-02-09T04:51:11.693Z,7.72
2023-02-09T04:53:39.880Z,8.32
2023-02-09T04:56:07.204Z,8.13
2023-02-09T04:58:52.528Z,7.72
2023-02-09T05:01:23.024Z,7.80
2023-02-09T05:03:50.143Z,7.93
2023-02-09T05:06:17.609Z,8.00
2023-02-09T05:08:44.506Z,8.38
2023-02-09T05:11:12.115Z,8.30
2023-02-09T05:13:39.664Z,8.30
2023-02-09T05:16:08.454Z,8.65
2023-02-09T05:18:36.267Z,8.43
2023-02-09T05:21:04.001Z,8.55
2023-02-09T05:23:31.134Z,8.68
2023-02-09T05:25:58.114Z,8.43
2023-02-09T05:28:25.445Z,8.35
2023-02-09T05:30:53.942Z,8.50
2023-02-09T05:33:21.919Z,8.48
2023-02-09T05:35:50.394Z,8.98
2023-02-09T05:38:17.258Z,8.13
2023-02-09T05:40:45.201Z,8.32
2023-02-09T05:43:12.451Z,8.05
2023-02-09T05:45:39.608Z,8.98
2023-02-09T05:48:07.342Z,9.05
2023-02-09T05:50:35.833Z,8.52
2023-02-09T05:53:02.692Z,8.90
2023-02-09T05:55:29.565Z,8.68
2023-02-09T05:57:56.526Z,9.25
2023-02-09T06:00:25.115Z,8.77
2023-02-09T06:02:52.130Z,8.57
2023-02-09T06:05:21.058Z,9.38
2023-02-09T06:07:48.707Z,9.00
2023-02-09T06:10:16.661Z,8.55
2023-02-09T06:12:43.602Z,8.00
2023-02-09T06:15:11.016Z,9.35
2023-02-09T06:17:37.855Z,8.82
2023-02-09T06:20:05.408Z,8.55
2023-02-09T06:22:32.298Z,8.52
2023-02-09T06:24:59.211Z,9.02
2023-02-09T06:27:26.194Z,9.55
2023-02-09T06:29:53.102Z,8.20
2023-02-09T06:32:20.104Z,8.88
2023-02-09T06:34:47.124Z,9.27
2023-02-09T06:37:14.053Z,8.90
2023-02-09T06:39:41.033Z,9.27
2023-02-09T06:42:08.002Z,9.88
2023-02-09T06:44:34.841Z,9.75
2023-02-09T06:47:01.714Z,9.70
2023-02-09T06:49:28.602Z,9.10
2023-02-09T06:51:55.659Z,9.32
2023-02-09T06:54:22.849Z,8.98
2023-02-09T06:56:49.697Z,9.32
2023-02-09T06:59:16.512Z,9.88
2023-02-09T07:01:43.547Z,9.85
2023-02-09T07:04:10.558Z,9.30
2023-02-09T07:06:37.436Z,9.32
2023-02-09T07:09:04.392Z,8.35
2023-02-09T07:11:31.418Z,9.27
2023-02-09T07:13:58.252Z,9.55
2023-02-09T07:16:25.097Z,9.57
2023-02-09T07:18:51.990Z,9.32
2023-02-09T07:21:21.412Z,9.35
2023-02-09T07:23:48.847Z,10.75
2023-02-09T07:26:17.413Z,10.45
2023-02-09T07:28:44.511Z,9.45
2023-02-09T07:31:13.789Z,9.82
2023-02-09T07:33:41.180Z,8.88
2023-02-09T07:36:11.374Z,9.77
2023-02-09T07:38:39.453Z,9.30
2023-02-09T07:41:08.368Z,9.13
2023-02-09T07:43:35.187Z,10.20
2023-02-09T07:46:07.139Z,9.23
2023-02-09T07:48:34.508Z,9.45
2023-02-09T07:51:01.765Z,9.07
2023-02-09T07:53:28.793Z,9.88
2023-02-09T07:55:56.257Z,9.10
2023-02-09T07:58:23.459Z,10.00
2023-02-09T08:00:51.533Z,10.32
2023-02-09T08:03:20.975Z,10.00
2023-02-09T08:06:00.484Z,10.40
2023-02-09T08:08:27.813Z,10.00
2023-02-09T08:11:00.845Z,10.15
2023-02-09T08:13:31.171Z,9.93
2023-02-09T08:16:04.732Z,10.05
2023-02-09T08:18:45.022Z,10.07
2023-02-09T08:21:14.488Z,10.85
2023-02-09T08:23:43.984Z,9.70
2023-02-09T08:26:13.643Z,10.00
2023-02-09T08:28:44.885Z,11.07
2023-02-09T08:31:17.582Z,9.10
2023-02-09T08:33:46.402Z,10.68
2023-02-09T08:36:13.940Z,13.13
2023-02-09T08:38:41.427Z,9.55
2023-02-09T08:41:10.354Z,25.20
2023-02-09T08:43:37.185Z,9.80
2023-02-09T08:46:10.072Z,9.73
2023-02-09T08:48:39.368Z,9.88
2023-02-09T08:51:07.434Z,19.77
2023-02-09T08:53:35.310Z,19.10
2023-02-09T08:56:02.118Z,13.27
2023-02-09T08:58:30.214Z,16.95
2023-02-09T09:00:57.535Z,18.90
2023-02-09T09:03:29.910Z,18.25
2023-02-09T09:06:02.215Z,11.73
2023-02-09T09:08:29.644Z,10.73
2023-02-09T09:10:57.126Z,11.27
2023-02-09T09:13:24.941Z,9.43
2023-02-09T09:15:52.745Z,9.95
2023-02-09T09:18:19.761Z,10.52
2023-02-09T09:20:46.731Z,11.02
2023-02-09T09:23:14.170Z,10.95
2023-02-09T09:25:42.361Z,9.63
2023-02-09T09:28:09.733Z,10.63
2023-02-09T09:30:37.450Z,10.07
2023-02-09T09:33:04.790Z,10.90
2023-02-09T09:35:31.945Z,10.98
2023-02-09T09:38:01.817Z,10.07
2023-02-09T09:40:32.094Z,11.15
2023-02-09T09:43:05.079Z,10.65
2023-02-09T09:45:35.439Z,10.85
2023-02-09T09:48:02.858Z,11.00
2023-02-09T09:50:42.991Z,12.70
2023-02-09T09:53:33.157Z,11.20
2023-02-09T09:56:03.940Z,11.05
2023-02-09T09:58:32.458Z,11.60
2023-02-09T10:00:59.580Z,10.75
2023-02-09T10:03:27.145Z,11.80
2023-02-09T10:05:59.776Z,12.43
2023-02-09T10:08:39.447Z,11.45
2023-02-09T10:11:12.731Z,11.57
2023-02-09T10:13:54.588Z,11.50
2023-02-09T10:16:27.262Z,12.77
2023-02-09T10:19:22.142Z,11.60
2023-02-09T10:21:49.393Z,11.27
2023-02-09T10:24:29.555Z,12.02
2023-02-09T10:27:08.327Z,12.38
2023-02-09T10:29:36.570Z,11.73
2023-02-09T10:32:05.788Z,12.13
2023-02-09T10:34:38.664Z,12.05
2023-02-09T10:37:22.012Z,12.55
2023-02-09T10:40:12.362Z,12.68
2023-02-09T10:42:51.471Z,12.25
2023-02-09T10:45:37.147Z,12.77
2023-02-09T10:48:13.092Z,12.50
2023-02-09T10:51:07.364Z,12.90
2023-02-09T10:53:38.735Z,13.25
2023-02-09T10:56:24.517Z,13.18
2023-02-09T10:58:52.874Z,12.98
2023-02-09T11:01:26.109Z,13.50
2023-02-09T11:04:17.402Z,12.40
2023-02-09T11:06:52.299Z,13.63
2023-02-09T11:09:28.657Z,13.90
2023-02-09T11:11:56.365Z,14.13
2023-02-09T11:14:23.810Z,17.70
2023-02-09T11:16:56.564Z,15.55
2023-02-09T11:19:35.438Z,16.88
2023-02-09T11:22:17.858Z,17.23
2023-02-09T11:25:04.773Z,15.48
2023-02-09T11:27:37.868Z,14.20
2023-02-09T11:30:30.973Z,13.25
2023-02-09T11:33:09.884Z,16.80
2023-02-09T11:35:56.630Z,16.70
2023-02-09T11:38:40.096Z,17.40
2023-02-09T11:41:31.110Z,16.98
2023-02-09T11:44:01.338Z,16.00
2023-02-09T11:46:31.468Z,15.07
2023-02-09T11:49:04.382Z,14.70
2023-02-09T11:51:37.305Z,14.95
2023-02-09T11:54:17.237Z,15.40
2023-02-09T11:56:51.151Z,14.50
2023-02-09T11:59:30.134Z,15.32
2023-02-09T12:02:18.408Z,15.18
2023-02-09T12:04:57.103Z,15.88
2023-02-09T12:07:48.761Z,15.40
2023-02-09T12:10:28.986Z,15.60
2023-02-09T12:13:06.028Z,15.38
2023-02-09T12:15:38.355Z,15.98
2023-02-09T12:18:18.928Z,16.23
2023-02-09T12:20:56.303Z,14.63
2023-02-09T12:23:43.455Z,16.67
2023-02-09T12:26:16.308Z,15.77
2023-02-09T12:29:03.574Z,16.10
2023-02-09T12:31:51.342Z,16.27
2023-02-09T12:34:27.605Z,15.45
2023-02-09T12:37:16.686Z,16.10
2023-02-09T12:40:20.301Z,17.45
2023-02-09T12:43:07.351Z,17.38
2023-02-09T12:45:41.186Z,17.00
2023-02-09T12:48:07.917Z,17.27
2023-02-09T12:50:43.830Z,18.00
2023-02-09T12:53:22.869Z,17.15
2023-02-09T12:56:11.059Z,17.35
2023-02-09T12:58:54.249Z,17.10
2023-02-09T13:01:21.224Z,18.02
2023-02-09T13:04:03.114Z,17.13
2023-02-09T13:06:46.924Z,17.80
2023-02-09T13:09:20.881Z,18.45
2023-02-09T13:11:51.600Z,18.58
2023-02-09T13:14:22.344Z,18.63
2023-02-09T13:17:04.217Z,17.33
2023-02-09T13:20:07.193Z,17.80
2023-02-09T13:22:46.127Z,17.73
2023-02-09T13:25:39.586Z,18.27
2023-02-09T13:28:18.865Z,18.45
2023-02-09T13:30:47.309Z,18.70
2023-02-09T13:33:17.097Z,18.88
2023-02-09T13:36:11.140Z,18.10
2023-02-09T13:38:43.281Z,18.88
2023-02-09T13:41:31.015Z,18.15
2023-02-09T13:43:58.145Z,17.70
2023-02-09T13:46:34.295Z,18.02
2023-02-09T13:51:38.853Z,18.63
2023-02-09T13:54:05.880Z,18.73
2023-02-09T13:56:34.774Z,19.67
2023-02-09T13:59:01.921Z,20.08
2023-02-09T14:01:33.064Z,18.75
2023-02-09T14:04:05.421Z,18.15
2023-02-09T14:06:52.355Z,19.67
2023-02-09T14:09:29.837Z,18.00
2023-02-09T14:12:12.050Z,20.02
2023-02-09T14:15:01.745Z,18.83
2023-02-09T14:17:35.332Z,18.25
2023-02-09T14:20:02.473Z,18.55
2023-02-09T14:22:37.917Z,18.85
2023-02-09T14:25:13.596Z,18.95
2023-02-09T14:27:41.183Z,18.20
2023-02-09T14:30:21.295Z,19.33
2023-02-09T14:32:53.558Z,18.95
2023-02-09T14:35:26.991Z,19.60
2023-02-09T14:37:56.646Z,19.35
2023-02-09T14:40:34.690Z,18.48
2023-02-09T14:43:08.974Z,19.10
2023-02-09T14:45:40.520Z,19.52
2023-02-09T14:48:26.372Z,19.88
2023-02-09T14:53:23.376Z,19.40
2023-02-09T14:55:50.309Z,19.98
2023-02-09T14:58:26.431Z,19.48
2023-02-09T15:03:21.949Z,18.42
2023-02-09T15:05:51.344Z,19.35
2023-02-09T15:08:21.779Z,19.08
2023-02-09T15:11:00.771Z,20.45
2023-02-09T15:13:32.676Z,20.23
2023-02-09T15:15:59.580Z,19.70
2023-02-09T15:18:27.800Z,20.15
2023-02-09T15:20:54.947Z,19.67
2023-02-09T15:23:21.778Z,21.70
2023-02-09T15:25:48.905Z,18.98
2023-02-09T15:28:28.591Z,19.95
2023-02-09T15:30:56.904Z,18.98
2023-02-09T15:33:25.382Z,20.35
2023-02-09T15:35:52.539Z,20.27
2023-02-09T15:38:19.941Z,19.73
2023-02-09T15:41:07.743Z,20.45
2023-02-09T15:43:54.044Z,20.70
2023-02-09T15:46:39.984Z,21.08
2023-02-09T15:51:37.040Z,19.75
2023-02-09T15:54:09.209Z,20.73
2023-02-09T15:56:37.323Z,20.38
2023-02-09T15:59:05.615Z,21.13
2023-02-09T16:01:34.613Z,21.23
2023-02-09T16:04:13.382Z,20.90
2023-02-09T16:06:45.398Z,21.33
2023-02-09T16:09:19.326Z,20.52
2023-02-09T16:11:48.507Z,21.35
2023-02-09T16:14:18.200Z,22.77
2023-02-09T16:16:45.841Z,21.40
2023-02-09T16:19:13.713Z,20.88
2023-02-09T16:21:44.244Z,22.40
2023-02-09T16:24:33.444Z,21.42
2023-02-09T16:27:02.018Z,22.27
2023-02-09T16:29:28.964Z,22.63
2023-02-09T16:31:55.965Z,22.10
2023-02-09T16:34:22.854Z,23.00
2023-02-09T16:36:50.040Z,22.58
2023-02-09T16:39:19.567Z,22.50
2023-02-09T16:41:47.200Z,22.30
2023-02-09T16:44:21.973Z,23.83
2023-02-09T16:46:52.541Z,23.25
2023-02-09T16:49:36.885Z,23.17
2023-02-09T16:52:19.264Z,22.95
2023-02-09T16:54:49.351Z,24.58
2023-02-09T16:57:19.809Z,23.25
2023-02-09T16:59:46.734Z,24.08
2023-02-09T17:02:36.849Z,24.40
2023-02-09T17:05:23.147Z,24.25
2023-02-09T17:07:55.532Z,25.08
2023-02-09T17:10:25.837Z,24.10
2023-02-09T17:12:53.874Z,24.95
2023-02-09T17:15:30.146Z,24.27
2023-02-09T17:18:05.836Z,24.55
2023-02-09T17:20:44.069Z,24.35
2023-02-09T17:23:16.142Z,25.45
2023-02-09T17:25:44.228Z,24.88
2023-02-09T17:28:11.850Z,24.25
2023-02-09T17:30:40.052Z,25.45
2023-02-09T17:33:10.777Z,27.35
2023-02-09T17:38:35.708Z,26.50
2023-02-09T17:41:05.759Z,24.35
2023-02-09T17:43:32.774Z,26.63
2023-02-09T17:45:59.784Z,25.10
2023-02-09T17:48:26.763Z,26.00
2023-02-09T17:50:57.942Z,25.15
2023-02-09T17:53:27.628Z,24.98
2023-02-09T17:55:56.406Z,25.70
2023-02-09T17:58:24.453Z,25.90
2023-02-09T18:00:53.432Z,25.45
2023-02-09T18:03:22.932Z,25.75
2023-02-09T18:05:58.673Z,26.45
2023-02-09T18:08:27.299Z,26.00
2023-02-09T18:10:57.940Z,27.23
2023-02-09T18:13:27.066Z,26.02
2023-02-09T18:15:54.734Z,26.55
2023-02-09T18:18:24.154Z,26.30
2023-02-09T18:20:51.355Z,26.60
2023-02-09T18:23:18.171Z,27.13
2023-02-09T18:25:47.600Z,26.83
2023-02-09T18:28:15.394Z,27.35
2023-02-09T18:30:43.064Z,26.30
2023-02-09T18:33:10.639Z,25.90
2023-02-09T18:35:41.565Z,25.85
2023-02-09T18:38:10.409Z,26.98
2023-02-09T18:40:39.056Z,25.52
2023-02-09T18:43:07.379Z,28.05
2023-02-09T18:45:34.423Z,27.52
2023-02-09T18:48:01.540Z,26.25
2023-02-09T18:50:31.078Z,27.38
2023-02-09T18:53:00.827Z,27.98
2023-02-09T18:55:30.771Z,27.48
2023-02-09T18:58:01.523Z,28.27
2023-02-09T19:00:29.139Z,27.00
2023-02-09T19:03:00.142Z,27.77
2023-02-09T19:05:30.162Z,28.15
2023-02-09T19:07:59.551Z,27.75
2023-02-09T19:10:26.873Z,27.70
2023-02-09T19:12:54.376Z,27.55
2023-02-09T19:15:22.541Z,28.48
2023-02-09T19:17:49.467Z,28.02
2023-02-09T19:20:19.773Z,28.90
2023-02-09T19:22:47.853Z,28.42
2023-02-09T19:25:15.328Z,29.33
2023-02-09T19:27:42.527Z,27.90
2023-02-09T19:30:14.045Z,29.05
2023-02-09T19:32:41.057Z,28.55
2023-02-09T19:35:08.423Z,28.77
2023-02-09T19:37:36.320Z,28.85
2023-02-09T19:40:21.118Z,29.33
2023-02-09T19:42:48.700Z,29.38
2023-02-09T19:45:16.030Z,28.48
2023-02-09T19:47:42.986Z,28.77
2023-02-09T19:50:10.689Z,29.85
2023-02-09T19:52:38.842Z,28.10
2023-02-09T19:55:06.288Z,29.85
2023-02-09T19:57:33.086Z,30.42
2023-02-09T19:59:59.972Z,28.77
2023-02-09T20:02:26.987Z,29.63
2023-02-09T20:04:53.898Z,30.02
2023-02-09T20:07:20.727Z,29.33
2023-02-09T20:09:47.674Z,29.77
2023-02-09T20:12:14.493Z,31.13
2023-02-09T20:14:41.323Z,29.70
2023-02-09T20:17:08.523Z,29.45
2023-02-09T20:19:39.284Z,30.05
2023-02-09T20:22:06.163Z,29.90
2023-02-09T20:24:33.218Z,30.63
2023-02-09T20:27:00.124Z,31.73
2023-02-09T20:29:27.002Z,33.28
2023-02-09T20:31:54.123Z,30.52
2023-02-09T20:34:21.332Z,30.73
2023-02-09T20:36:48.661Z,29.02
2023-02-09T20:39:16.524Z,30.02
2023-02-09T20:42:06.393Z,30.48
2023-02-09T20:44:52.739Z,30.00
2023-02-09T20:47:19.714Z,29.98
2023-02-09T20:49:46.564Z,31.10
2023-02-09T20:52:13.498Z,31.55
2023-02-09T20:54:40.514Z,31.90
2023-02-09T20:57:07.415Z,31.88
2023-02-09T20:59:35.015Z,31.08
2023-02-09T21:02:01.932Z,31.80
2023-02-09T21:04:30.186Z,31.00
2023-02-09T21:06:58.231Z,32.25
2023-02-09T21:09:26.637Z,32.67
2023-02-09T21:11:54.529Z,32.83
2023-02-09T21:14:32.548Z,32.63
2023-02-09T21:17:06.138Z,31.08
2023-02-09T21:19:34.526Z,32.15
2023-02-09T21:22:01.356Z,33.92
2023-02-09T21:24:28.291Z,31.55
2023-02-09T21:26:55.310Z,31.92
2023-02-09T21:29:22.196Z,31.20
2023-02-09T21:31:49.112Z,30.67
2023-02-09T21:34:17.057Z,33.00
2023-02-09T21:36:44.410Z,34.40
2023-02-09T21:39:11.280Z,32.50
2023-02-09T21:41:56.682Z,32.42
2023-02-09T21:44:23.538Z,32.58
2023-02-09T21:46:50.634Z,32.55
2023-02-09T21:49:17.536Z,33.30
2023-02-09T21:51:44.734Z,33.80
2023-02-09T21:54:14.485Z,33.58
2023-02-09T21:56:41.510Z,34.15
2023-02-09T21:59:08.457Z,34.13
2023-02-09T22:01:35.484Z,33.45
2023-02-09T22:04:02.376Z,33.58
2023-02-09T22:06:30.617Z,33.88
2023-02-09T22:09:00.248Z,33.55
2023-02-09T22:11:27.162Z,33.72
2023-02-09T22:13:54.128Z,33.28
2023-02-09T22:16:22.544Z,33.78
2023-02-09T22:18:50.046Z,34.45
2023-02-09T22:21:17.889Z,35.28
2023-02-09T22:23:44.793Z,35.42
2023-02-09T22:26:13.932Z,35.13
2023-02-09T22:28:41.564Z,36.53
2023-02-09T22:31:14.156Z,36.70
2023-02-09T22:33:41.219Z,35.53
2023-02-09T22:36:11.487Z,36.20
2023-02-09T22:38:38.664Z,35.95
2023-02-09T22:41:07.894Z,38.20
2023-02-09T22:43:35.205Z,39.72
2023-02-09T22:46:02.067Z,37.50
2023-02-09T22:48:28.892Z,34.75
2023-02-09T22:50:55.728Z,37.33
2023-02-09T22:53:22.579Z,37.22
2023-02-09T22:55:49.761Z,38.25
2023-02-09T22:58:16.624Z,38.08
2023-02-09T23:00:43.507Z,37.03
2023-02-09T23:03:10.357Z,39.70
2023-02-09T23:05:37.195Z,38.40
2023-02-09T23:08:04.204Z,40.00
2023-02-09T23:10:31.081Z,39.22
2023-02-09T23:12:57.940Z,38.47
2023-02-09T23:15:24.781Z,39.20
2023-02-09T23:17:51.745Z,39.33
2023-02-09T23:20:18.960Z,39.65
2023-02-09T23:22:46.515Z,41.33
2023-02-09T23:25:13.521Z,44.40
2023-02-09T23:27:40.641Z,41.92
2023-02-09T23:30:08.387Z,40.83
2023-02-09T23:32:35.315Z,42.53
2023-02-09T23:35:02.179Z,41.08
2023-02-09T23:37:37.656Z,46.10
2023-02-09T23:40:05.147Z,45.58
2023-02-09T23:42:32.032Z,42.50
2023-02-09T23:44:58.806Z,41.78
2023-02-09T23:47:25.600Z,41.90
2023-02-09T23:49:52.413Z,42.05
2023-02-09T23:52:19.223Z,40.35
2023-02-09T23:54:46.050Z,43.05
2023-02-09T23:57:12.984Z,41.33
2023-02-09T23:59:39.814Z,42.63
